sensor_id;sensor_type;location;lat;lon;timestamp;pressure;altitude;pressure_sealevel;temperature
6550;BMP280;15142;48.888;9.134;2023-05-18T00:02:05;98738.47;;;6.30
6550;BMP280;15142;48.888;9.134;2023-05-18T00:04:35;98737.00;;;6.45
6550;BMP280;15142;48.888;9.134;2023-05-18T00:07:04;98731.94;;;6.45
6550;BMP280;15142;48.888;9.134;2023-05-18T00:09:33;98727.63;;;6.45
6550;BMP280;15142;48.888;9.134;2023-05-18T00:12:05;98733.34;;;6.52
6550;BMP280;15142;48.888;9.134;2023-05-18T00:14:35;98725.41;;;6.60
6550;BMP280;15142;48.888;9.134;2023-05-18T00:17:04;98726.00;;;6.67
6550;BMP280;15142;48.888;9.134;2023-05-18T00:19:32;98722.16;;;6.65
6550;BMP280;15142;48.888;9.134;2023-05-18T00:22:01;98717.31;;;6.63
6550;BMP280;15142;48.888;9.134;2023-05-18T00:24:32;98710.44;;;6.47
6550;BMP280;15142;48.888;9.134;2023-05-18T00:27:01;98705.81;;;6.44
6550;BMP280;15142;48.888;9.134;2023-05-18T00:29:33;98702.66;;;6.38
6550;BMP280;15142;48.888;9.134;2023-05-18T00:32:02;98705.50;;;6.41
6550;BMP280;15142;48.888;9.134;2023-05-18T00:34:30;98704.72;;;6.41
6550;BMP280;15142;48.888;9.134;2023-05-18T00:36:59;98707.25;;;6.41
6550;BMP280;15142;48.888;9.134;2023-05-18T00:39:28;98705.97;;;6.27
6550;BMP280;15142;48.888;9.134;2023-05-18T00:41:56;98701.91;;;6.26
6550;BMP280;15142;48.888;9.134;2023-05-18T00:44:25;98710.16;;;6.33
6550;BMP280;15142;48.888;9.134;2023-05-18T00:46:56;98718.88;;;6.37
6550;BMP280;15142;48.888;9.134;2023-05-18T00:49:24;98712.03;;;6.37
6550;BMP280;15142;48.888;9.134;2023-05-18T00:51:54;98706.72;;;6.39
6550;BMP280;15142;48.888;9.134;2023-05-18T00:54:24;98705.19;;;6.38
6550;BMP280;15142;48.888;9.134;2023-05-18T00:56:53;98701.66;;;6.39
6550;BMP280;15142;48.888;9.134;2023-05-18T00:59:27;98698.47;;;6.32
6550;BMP280;15142;48.888;9.134;2023-05-18T01:01:58;98710.38;;;6.31
6550;BMP280;15142;48.888;9.134;2023-05-18T01:04:27;98714.03;;;6.24
6550;BMP280;15142;48.888;9.134;2023-05-18T01:06:56;98711.75;;;6.11
6550;BMP280;15142;48.888;9.134;2023-05-18T01:09:31;98711.88;;;5.93
6550;BMP280;15142;48.888;9.134;2023-05-18T01:12:06;98714.53;;;5.87
6550;BMP280;15142;48.888;9.134;2023-05-18T01:14:45;98717.38;;;5.90
6550;BMP280;15142;48.888;9.134;2023-05-18T01:17:25;98712.22;;;5.97
6550;BMP280;15142;48.888;9.134;2023-05-18T01:20:10;98709.91;;;5.95
6550;BMP280;15142;48.888;9.134;2023-05-18T01:23:00;98710.69;;;5.96
6550;BMP280;15142;48.888;9.134;2023-05-18T01:25:45;98713.88;;;5.91
6550;BMP280;15142;48.888;9.134;2023-05-18T01:28:19;98711.25;;;5.86
6550;BMP280;15142;48.888;9.134;2023-05-18T01:30:52;98704.72;;;5.90
6550;BMP280;15142;48.888;9.134;2023-05-18T01:33:22;98709.25;;;5.77
6550;BMP280;15142;48.888;9.134;2023-05-18T01:35:51;98712.25;;;5.85
6550;BMP280;15142;48.888;9.134;2023-05-18T01:38:22;98711.13;;;5.93
6550;BMP280;15142;48.888;9.134;2023-05-18T01:40:55;98706.06;;;5.93
6550;BMP280;15142;48.888;9.134;2023-05-18T01:43:32;98709.25;;;5.88
6550;BMP280;15142;48.888;9.134;2023-05-18T01:46:06;98698.78;;;5.74
6550;BMP280;15142;48.888;9.134;2023-05-18T01:48:37;98703.31;;;5.72
6550;BMP280;15142;48.888;9.134;2023-05-18T01:51:09;98704.63;;;5.74
6550;BMP280;15142;48.888;9.134;2023-05-18T01:53:44;98706.28;;;5.80
6550;BMP280;15142;48.888;9.134;2023-05-18T01:56:13;98705.09;;;5.82
6550;BMP280;15142;48.888;9.134;2023-05-18T01:58:45;98702.97;;;5.79
6550;BMP280;15142;48.888;9.134;2023-05-18T02:01:14;98704.41;;;5.76
6550;BMP280;15142;48.888;9.134;2023-05-18T02:03:45;98703.84;;;5.74
6550;BMP280;15142;48.888;9.134;2023-05-18T02:06:13;98706.88;;;5.71
6550;BMP280;15142;48.888;9.134;2023-05-18T02:08:42;98704.19;;;5.66
6550;BMP280;15142;48.888;9.134;2023-05-18T02:11:10;98703.22;;;5.55
6550;BMP280;15142;48.888;9.134;2023-05-18T02:13:39;98707.19;;;5.51
6550;BMP280;15142;48.888;9.134;2023-05-18T02:16:11;98693.31;;;5.54
6550;BMP280;15142;48.888;9.134;2023-05-18T02:18:39;98702.88;;;5.52
6550;BMP280;15142;48.888;9.134;2023-05-18T02:21:09;98701.34;;;5.51
6550;BMP280;15142;48.888;9.134;2023-05-18T02:23:38;98697.84;;;5.41
6550;BMP280;15142;48.888;9.134;2023-05-18T02:26:06;98704.88;;;5.39
6550;BMP280;15142;48.888;9.134;2023-05-18T02:28:35;98704.44;;;5.42
6550;BMP280;15142;48.888;9.134;2023-05-18T02:31:06;98698.56;;;5.30
6550;BMP280;15142;48.888;9.134;2023-05-18T02:33:38;98692.72;;;5.29
6550;BMP280;15142;48.888;9.134;2023-05-18T02:36:08;98691.19;;;5.28
6550;BMP280;15142;48.888;9.134;2023-05-18T02:38:38;98696.72;;;5.25
6550;BMP280;15142;48.888;9.134;2023-05-18T02:41:07;98693.63;;;5.23
6550;BMP280;15142;48.888;9.134;2023-05-18T02:43:37;98687.56;;;5.24
6550;BMP280;15142;48.888;9.134;2023-05-18T02:46:06;98683.06;;;5.26
6550;BMP280;15142;48.888;9.134;2023-05-18T02:48:37;98683.50;;;5.23
6550;BMP280;15142;48.888;9.134;2023-05-18T02:51:11;98683.50;;;5.23
6550;BMP280;15142;48.888;9.134;2023-05-18T02:53:40;98677.34;;;5.19
6550;BMP280;15142;48.888;9.134;2023-05-18T02:56:12;98680.72;;;5.13
6550;BMP280;15142;48.888;9.134;2023-05-18T02:58:51;98685.22;;;5.12
6550;BMP280;15142;48.888;9.134;2023-05-18T03:01:27;98682.06;;;5.05
6550;BMP280;15142;48.888;9.134;2023-05-18T03:03:59;98677.19;;;5.03
6550;BMP280;15142;48.888;9.134;2023-05-18T03:06:28;98681.81;;;5.06
6550;BMP280;15142;48.888;9.134;2023-05-18T03:08:57;98673.19;;;4.96
6550;BMP280;15142;48.888;9.134;2023-05-18T03:11:33;98683.47;;;5.01
6550;BMP280;15142;48.888;9.134;2023-05-18T03:14:02;98678.81;;;4.98
6550;BMP280;15142;48.888;9.134;2023-05-18T03:16:30;98680.69;;;4.91
6550;BMP280;15142;48.888;9.134;2023-05-18T03:19:02;98675.63;;;4.91
6550;BMP280;15142;48.888;9.134;2023-05-18T03:21:35;98682.44;;;4.90
6550;BMP280;15142;48.888;9.134;2023-05-18T03:24:04;98679.56;;;4.87
6550;BMP280;15142;48.888;9.134;2023-05-18T03:26:36;98684.41;;;4.88
6550;BMP280;15142;48.888;9.134;2023-05-18T03:29:06;98686.47;;;4.80
6550;BMP280;15142;48.888;9.134;2023-05-18T03:31:35;98683.47;;;4.72
6550;BMP280;15142;48.888;9.134;2023-05-18T03:34:06;98685.81;;;4.73
6550;BMP280;15142;48.888;9.134;2023-05-18T03:36:35;98695.16;;;4.84
6550;BMP280;15142;48.888;9.134;2023-05-18T03:39:03;98690.25;;;4.89
6550;BMP280;15142;48.888;9.134;2023-05-18T03:41:33;98694.31;;;4.90
6550;BMP280;15142;48.888;9.134;2023-05-18T03:44:02;98692.91;;;4.94
6550;BMP280;15142;48.888;9.134;2023-05-18T03:46:31;98688.84;;;4.93
6550;BMP280;15142;48.888;9.134;2023-05-18T03:49:00;98697.53;;;4.97
6550;BMP280;15142;48.888;9.134;2023-05-18T03:51:38;98691.91;;;4.95
6550;BMP280;15142;48.888;9.134;2023-05-18T03:54:06;98695.63;;;4.92
6550;BMP280;15142;48.888;9.134;2023-05-18T03:56:35;98693.25;;;4.68
6550;BMP280;15142;48.888;9.134;2023-05-18T03:59:04;98691.16;;;4.65
6550;BMP280;15142;48.888;9.134;2023-05-18T04:01:32;98703.91;;;4.70
6550;BMP280;15142;48.888;9.134;2023-05-18T04:04:01;98696.75;;;4.67
6550;BMP280;15142;48.888;9.134;2023-05-18T04:06:30;98705.44;;;4.60
6550;BMP280;15142;48.888;9.134;2023-05-18T04:09:03;98703.78;;;4.65
6550;BMP280;15142;48.888;9.134;2023-05-18T04:11:32;98692.03;;;4.71
6550;BMP280;15142;48.888;9.134;2023-05-18T04:14:01;98703.19;;;4.81
6550;BMP280;15142;48.888;9.134;2023-05-18T04:16:29;98702.94;;;4.82
6550;BMP280;15142;48.888;9.134;2023-05-18T04:18:58;98696.84;;;4.90
6550;BMP280;15142;48.888;9.134;2023-05-18T04:21:28;98698.41;;;4.91
6550;BMP280;15142;48.888;9.134;2023-05-18T04:24:04;98701.22;;;4.83
6550;BMP280;15142;48.888;9.134;2023-05-18T04:26:33;98707.69;;;4.79
6550;BMP280;15142;48.888;9.134;2023-05-18T04:29:03;98708.88;;;4.77
6550;BMP280;15142;48.888;9.134;2023-05-18T04:31:32;98708.25;;;4.81
6550;BMP280;15142;48.888;9.134;2023-05-18T04:34:01;98717.34;;;4.82
6550;BMP280;15142;48.888;9.134;2023-05-18T04:36:30;98717.50;;;4.87
6550;BMP280;15142;48.888;9.134;2023-05-18T04:38:59;98723.13;;;4.89
6550;BMP280;15142;48.888;9.134;2023-05-18T04:41:35;98737.34;;;5.01
6550;BMP280;15142;48.888;9.134;2023-05-18T04:44:07;98737.81;;;5.10
6550;BMP280;15142;48.888;9.134;2023-05-18T04:46:35;98739.78;;;5.08
6550;BMP280;15142;48.888;9.134;2023-05-18T04:49:07;98733.97;;;5.18
6550;BMP280;15142;48.888;9.134;2023-05-18T04:51:36;98735.53;;;5.42
6550;BMP280;15142;48.888;9.134;2023-05-18T04:54:07;98737.00;;;5.61
6550;BMP280;15142;48.888;9.134;2023-05-18T04:56:40;98737.53;;;5.74
6550;BMP280;15142;48.888;9.134;2023-05-18T04:59:11;98738.09;;;5.87
6550;BMP280;15142;48.888;9.134;2023-05-18T05:01:41;98737.44;;;6.03
6550;BMP280;15142;48.888;9.134;2023-05-18T05:04:10;98745.91;;;6.09
6550;BMP280;15142;48.888;9.134;2023-05-18T05:06:39;98739.16;;;6.14
6550;BMP280;15142;48.888;9.134;2023-05-18T05:09:07;98744.91;;;6.21
6550;BMP280;15142;48.888;9.134;2023-05-18T05:11:41;98742.78;;;6.29
6550;BMP280;15142;48.888;9.134;2023-05-18T05:14:10;98746.50;;;6.38
6550;BMP280;15142;48.888;9.134;2023-05-18T05:16:40;98746.59;;;6.43
6550;BMP280;15142;48.888;9.134;2023-05-18T05:19:08;98756.84;;;6.48
6550;BMP280;15142;48.888;9.134;2023-05-18T05:21:37;98746.56;;;6.54
6550;BMP280;15142;48.888;9.134;2023-05-18T05:24:06;98746.00;;;6.64
6550;BMP280;15142;48.888;9.134;2023-05-18T05:26:35;98742.69;;;6.63
6550;BMP280;15142;48.888;9.134;2023-05-18T05:29:09;98737.84;;;6.78
6550;BMP280;15142;48.888;9.134;2023-05-18T05:31:37;98735.75;;;6.86
6550;BMP280;15142;48.888;9.134;2023-05-18T05:34:06;98734.59;;;6.94
6550;BMP280;15142;48.888;9.134;2023-05-18T05:36:34;98731.00;;;7.06
6550;BMP280;15142;48.888;9.134;2023-05-18T05:39:04;98734.09;;;7.08
6550;BMP280;15142;48.888;9.134;2023-05-18T05:41:33;98730.72;;;7.19
6550;BMP280;15142;48.888;9.134;2023-05-18T05:44:01;98733.41;;;7.29
6550;BMP280;15142;48.888;9.134;2023-05-18T05:46:32;98738.31;;;7.35
6550;BMP280;15142;48.888;9.134;2023-05-18T05:49:02;98743.53;;;7.45
6550;BMP280;15142;48.888;9.134;2023-05-18T05:51:31;98738.09;;;7.53
6550;BMP280;15142;48.888;9.134;2023-05-18T05:54:00;98744.28;;;7.62
6550;BMP280;15142;48.888;9.134;2023-05-18T05:56:28;98726.63;;;7.71
6550;BMP280;15142;48.888;9.134;2023-05-18T05:58:57;98740.16;;;7.93
6550;BMP280;15142;48.888;9.134;2023-05-18T06:01:25;98739.81;;;8.06
6550;BMP280;15142;48.888;9.134;2023-05-18T06:03:58;98734.78;;;8.11
6550;BMP280;15142;48.888;9.134;2023-05-18T06:06:28;98734.91;;;8.21
6550;BMP280;15142;48.888;9.134;2023-05-18T06:08:56;98731.41;;;8.27
6550;BMP280;15142;48.888;9.134;2023-05-18T06:11:25;98737.56;;;8.31
6550;BMP280;15142;48.888;9.134;2023-05-18T06:13:54;98741.06;;;8.46
6550;BMP280;15142;48.888;9.134;2023-05-18T06:16:24;98736.16;;;8.65
6550;BMP280;15142;48.888;9.134;2023-05-18T06:18:53;98753.78;;;8.77
6550;BMP280;15142;48.888;9.134;2023-05-18T06:21:24;98747.84;;;8.93
6550;BMP280;15142;48.888;9.134;2023-05-18T06:23:53;98751.06;;;9.14
6550;BMP280;15142;48.888;9.134;2023-05-18T06:26:48;98752.22;;;9.28
6550;BMP280;15142;48.888;9.134;2023-05-18T06:29:35;98744.88;;;9.36
6550;BMP280;15142;48.888;9.134;2023-05-18T06:32:22;98748.97;;;9.37
6550;BMP280;15142;48.888;9.134;2023-05-18T06:34:53;98756.63;;;9.42
6550;BMP280;15142;48.888;9.134;2023-05-18T06:37:25;98745.44;;;9.48
6550;BMP280;15142;48.888;9.134;2023-05-18T06:39:53;98754.72;;;9.59
6550;BMP280;15142;48.888;9.134;2023-05-18T06:42:22;98746.31;;;9.63
6550;BMP280;15142;48.888;9.134;2023-05-18T06:45:00;98746.63;;;9.72
6550;BMP280;15142;48.888;9.134;2023-05-18T06:47:47;98750.97;;;9.76
6550;BMP280;15142;48.888;9.134;2023-05-18T06:50:15;98748.50;;;9.91
6550;BMP280;15142;48.888;9.134;2023-05-18T06:52:47;98749.34;;;10.11
6550;BMP280;15142;48.888;9.134;2023-05-18T06:55:16;98749.38;;;10.21
6550;BMP280;15142;48.888;9.134;2023-05-18T06:57:45;98749.16;;;10.27
6550;BMP280;15142;48.888;9.134;2023-05-18T07:00:14;98738.16;;;10.32
6550;BMP280;15142;48.888;9.134;2023-05-18T07:02:43;98741.53;;;10.52
6550;BMP280;15142;48.888;9.134;2023-05-18T07:05:13;98741.06;;;10.60
6550;BMP280;15142;48.888;9.134;2023-05-18T07:07:42;98743.06;;;10.68
6550;BMP280;15142;48.888;9.134;2023-05-18T07:10:14;98733.41;;;10.89
6550;BMP280;15142;48.888;9.134;2023-05-18T07:12:43;98738.25;;;10.86
6550;BMP280;15142;48.888;9.134;2023-05-18T07:15:12;98731.88;;;11.03
6550;BMP280;15142;48.888;9.134;2023-05-18T07:17:40;98736.41;;;11.36
6550;BMP280;15142;48.888;9.134;2023-05-18T07:20:09;98745.56;;;11.66
6550;BMP280;15142;48.888;9.134;2023-05-18T07:22:38;98737.25;;;11.84
6550;BMP280;15142;48.888;9.134;2023-05-18T07:25:08;98742.31;;;12.03
6550;BMP280;15142;48.888;9.134;2023-05-18T07:27:39;98741.75;;;12.16
6550;BMP280;15142;48.888;9.134;2023-05-18T07:30:08;98745.97;;;12.35
6550;BMP280;15142;48.888;9.134;2023-05-18T07:32:37;98729.25;;;12.48
6550;BMP280;15142;48.888;9.134;2023-05-18T07:35:10;98737.78;;;12.33
6550;BMP280;15142;48.888;9.134;2023-05-18T07:37:38;98735.47;;;12.37
6550;BMP280;15142;48.888;9.134;2023-05-18T07:40:10;98734.66;;;12.41
6550;BMP280;15142;48.888;9.134;2023-05-18T07:42:42;98727.22;;;12.45
6550;BMP280;15142;48.888;9.134;2023-05-18T07:45:11;98720.09;;;12.42
6550;BMP280;15142;48.888;9.134;2023-05-18T07:47:40;98727.41;;;12.53
6550;BMP280;15142;48.888;9.134;2023-05-18T07:50:09;98724.03;;;12.62
6550;BMP280;15142;48.888;9.134;2023-05-18T07:52:38;98720.03;;;12.80
6550;BMP280;15142;48.888;9.134;2023-05-18T07:55:07;98729.91;;;12.91
6550;BMP280;15142;48.888;9.134;2023-05-18T07:57:36;98719.47;;;13.11
6550;BMP280;15142;48.888;9.134;2023-05-18T08:00:09;98717.91;;;13.14
6550;BMP280;15142;48.888;9.134;2023-05-18T08:02:41;98716.00;;;13.25
6550;BMP280;15142;48.888;9.134;2023-05-18T08:05:10;98719.63;;;12.96
6550;BMP280;15142;48.888;9.134;2023-05-18T08:07:39;98714.66;;;12.76
6550;BMP280;15142;48.888;9.134;2023-05-18T08:10:09;98718.47;;;12.84
6550;BMP280;15142;48.888;9.134;2023-05-18T08:12:37;98715.84;;;13.16
6550;BMP280;15142;48.888;9.134;2023-05-18T08:15:09;98717.38;;;13.41
6550;BMP280;15142;48.888;9.134;2023-05-18T08:17:38;98712.72;;;13.43
6550;BMP280;15142;48.888;9.134;2023-05-18T08:20:08;98720.47;;;13.61
6550;BMP280;15142;48.888;9.134;2023-05-18T08:22:37;98696.00;;;13.86
6550;BMP280;15142;48.888;9.134;2023-05-18T08:25:06;98705.13;;;13.97
6550;BMP280;15142;48.888;9.134;2023-05-18T08:27:36;98699.13;;;14.20
6550;BMP280;15142;48.888;9.134;2023-05-18T08:30:08;98707.25;;;14.27
6550;BMP280;15142;48.888;9.134;2023-05-18T08:32:37;98710.94;;;14.21
6550;BMP280;15142;48.888;9.134;2023-05-18T08:35:07;98708.50;;;14.29
6550;BMP280;15142;48.888;9.134;2023-05-18T08:37:36;98689.56;;;14.57
6550;BMP280;15142;48.888;9.134;2023-05-18T08:40:05;98694.72;;;14.70
6550;BMP280;15142;48.888;9.134;2023-05-18T08:42:40;98681.88;;;14.83
6550;BMP280;15142;48.888;9.134;2023-05-18T08:45:20;98696.53;;;14.69
6550;BMP280;15142;48.888;9.134;2023-05-18T08:47:49;98690.63;;;14.69
6550;BMP280;15142;48.888;9.134;2023-05-18T08:50:19;98686.56;;;14.94
6550;BMP280;15142;48.888;9.134;2023-05-18T08:52:52;98691.81;;;15.03
6550;BMP280;15142;48.888;9.134;2023-05-18T08:55:22;98688.38;;;15.07
6550;BMP280;15142;48.888;9.134;2023-05-18T08:57:54;98679.34;;;14.96
6550;BMP280;15142;48.888;9.134;2023-05-18T09:00:27;98668.25;;;14.69
6550;BMP280;15142;48.888;9.134;2023-05-18T09:02:55;98667.13;;;15.02
6550;BMP280;15142;48.888;9.134;2023-05-18T09:05:24;98672.06;;;15.25
6550;BMP280;15142;48.888;9.134;2023-05-18T09:07:53;98660.91;;;15.16
6550;BMP280;15142;48.888;9.134;2023-05-18T09:10:23;98676.22;;;15.47
6550;BMP280;15142;48.888;9.134;2023-05-18T09:12:53;98662.53;;;15.39
6550;BMP280;15142;48.888;9.134;2023-05-18T09:15:23;98665.88;;;15.74
6550;BMP280;15142;48.888;9.134;2023-05-18T09:17:55;98667.34;;;15.67
6550;BMP280;15142;48.888;9.134;2023-05-18T09:20:25;98668.72;;;15.86
6550;BMP280;15142;48.888;9.134;2023-05-18T09:22:53;98670.56;;;15.94
6550;BMP280;15142;48.888;9.134;2023-05-18T09:25:22;98666.25;;;16.02
6550;BMP280;15142;48.888;9.134;2023-05-18T09:27:51;98656.16;;;15.58
6550;BMP280;15142;48.888;9.134;2023-05-18T09:30:20;98645.78;;;15.76
6550;BMP280;15142;48.888;9.134;2023-05-18T09:32:49;98661.22;;;15.63
6550;BMP280;15142;48.888;9.134;2023-05-18T09:35:23;98670.63;;;15.45
6550;BMP280;15142;48.888;9.134;2023-05-18T09:37:53;98670.81;;;15.84
6550;BMP280;15142;48.888;9.134;2023-05-18T09:40:27;98670.28;;;16.17
6550;BMP280;15142;48.888;9.134;2023-05-18T09:42:56;98658.03;;;16.22
6550;BMP280;15142;48.888;9.134;2023-05-18T09:45:25;98666.47;;;16.14
6550;BMP280;15142;48.888;9.134;2023-05-18T09:47:53;98663.50;;;16.51
6550;BMP280;15142;48.888;9.134;2023-05-18T09:50:25;98664.63;;;16.66
6550;BMP280;15142;48.888;9.134;2023-05-18T09:52:54;98663.00;;;16.79
6550;BMP280;15142;48.888;9.134;2023-05-18T09:55:23;98660.19;;;16.58
6550;BMP280;15142;48.888;9.134;2023-05-18T09:57:52;98662.25;;;16.78
6550;BMP280;15142;48.888;9.134;2023-05-18T10:00:24;98659.38;;;16.88
6550;BMP280;15142;48.888;9.134;2023-05-18T10:02:52;98658.09;;;17.15
6550;BMP280;15142;48.888;9.134;2023-05-18T10:05:24;98644.91;;;17.42
6550;BMP280;15142;48.888;9.134;2023-05-18T10:07:56;98637.50;;;17.66
6550;BMP280;15142;48.888;9.134;2023-05-18T10:10:26;98636.84;;;17.68
6550;BMP280;15142;48.888;9.134;2023-05-18T10:12:56;98634.75;;;17.54
6550;BMP280;15142;48.888;9.134;2023-05-18T10:15:25;98628.38;;;17.51
6550;BMP280;15142;48.888;9.134;2023-05-18T10:17:55;98638.38;;;17.53
6550;BMP280;15142;48.888;9.134;2023-05-18T10:20:27;98635.19;;;17.31
6550;BMP280;15142;48.888;9.134;2023-05-18T10:22:57;98625.09;;;16.87
6550;BMP280;15142;48.888;9.134;2023-05-18T10:25:28;98637.00;;;17.13
6550;BMP280;15142;48.888;9.134;2023-05-18T10:28:00;98639.59;;;17.30
6550;BMP280;15142;48.888;9.134;2023-05-18T10:30:31;98638.72;;;17.43
6550;BMP280;15142;48.888;9.134;2023-05-18T10:33:01;98629.09;;;17.68
6550;BMP280;15142;48.888;9.134;2023-05-18T10:35:34;98628.94;;;17.82
6550;BMP280;15142;48.888;9.134;2023-05-18T10:38:05;98632.91;;;17.79
6550;BMP280;15142;48.888;9.134;2023-05-18T10:40:35;98631.50;;;17.90
6550;BMP280;15142;48.888;9.134;2023-05-18T10:43:05;98632.53;;;18.06
6550;BMP280;15142;48.888;9.134;2023-05-18T10:45:36;98622.28;;;17.89
6550;BMP280;15142;48.888;9.134;2023-05-18T10:48:08;98622.91;;;18.23
6550;BMP280;15142;48.888;9.134;2023-05-18T10:50:41;98620.59;;;18.30
6550;BMP280;15142;48.888;9.134;2023-05-18T10:53:11;98624.59;;;18.56
6550;BMP280;15142;48.888;9.134;2023-05-18T10:55:40;98635.78;;;18.76
6550;BMP280;15142;48.888;9.134;2023-05-18T10:58:11;98633.06;;;18.93
6550;BMP280;15142;48.888;9.134;2023-05-18T11:00:43;98627.56;;;18.46
6550;BMP280;15142;48.888;9.134;2023-05-18T11:03:15;98619.59;;;19.60
6550;BMP280;15142;48.888;9.134;2023-05-18T11:06:01;98616.34;;;19.63
6550;BMP280;15142;48.888;9.134;2023-05-18T11:08:31;98621.22;;;20.32
6550;BMP280;15142;48.888;9.134;2023-05-18T11:11:01;98624.88;;;20.07
6550;BMP280;15142;48.888;9.134;2023-05-18T11:13:33;98626.41;;;20.43
6550;BMP280;15142;48.888;9.134;2023-05-18T11:16:04;98619.25;;;20.17
6550;BMP280;15142;48.888;9.134;2023-05-18T11:18:42;98622.50;;;19.90
6550;BMP280;15142;48.888;9.134;2023-05-18T11:21:29;98610.03;;;19.40
6550;BMP280;15142;48.888;9.134;2023-05-18T11:24:16;98615.09;;;19.81
6550;BMP280;15142;48.888;9.134;2023-05-18T11:26:46;98607.56;;;20.82
6550;BMP280;15142;48.888;9.134;2023-05-18T11:29:16;98617.78;;;21.29
6550;BMP280;15142;48.888;9.134;2023-05-18T11:31:48;98603.91;;;21.37
6550;BMP280;15142;48.888;9.134;2023-05-18T11:34:39;98613.44;;;21.90
6550;BMP280;15142;48.888;9.134;2023-05-18T11:37:12;98602.00;;;21.22
6550;BMP280;15142;48.888;9.134;2023-05-18T11:39:52;98603.34;;;21.16
6550;BMP280;15142;48.888;9.134;2023-05-18T11:42:21;98602.63;;;21.73
6550;BMP280;15142;48.888;9.134;2023-05-18T11:44:51;98593.88;;;20.58
6550;BMP280;15142;48.888;9.134;2023-05-18T11:47:22;98595.09;;;21.14
6550;BMP280;15142;48.888;9.134;2023-05-18T11:49:56;98601.25;;;21.48
6550;BMP280;15142;48.888;9.134;2023-05-18T11:52:28;98597.78;;;22.02
6550;BMP280;15142;48.888;9.134;2023-05-18T11:54:58;98586.34;;;22.06
6550;BMP280;15142;48.888;9.134;2023-05-18T11:57:38;98590.94;;;22.80
6550;BMP280;15142;48.888;9.134;2023-05-18T12:00:09;98592.75;;;22.42
6550;BMP280;15142;48.888;9.134;2023-05-18T12:02:42;98594.50;;;22.39
6550;BMP280;15142;48.888;9.134;2023-05-18T12:05:12;98591.72;;;21.83
6550;BMP280;15142;48.888;9.134;2023-05-18T12:07:43;98586.47;;;22.62
6550;BMP280;15142;48.888;9.134;2023-05-18T12:10:13;98587.22;;;22.63
6550;BMP280;15142;48.888;9.134;2023-05-18T12:12:42;98577.69;;;22.70
6550;BMP280;15142;48.888;9.134;2023-05-18T12:15:11;98582.63;;;22.75
6550;BMP280;15142;48.888;9.134;2023-05-18T12:17:41;98577.97;;;23.21
6550;BMP280;15142;48.888;9.134;2023-05-18T12:20:10;98579.34;;;23.81
6550;BMP280;15142;48.888;9.134;2023-05-18T12:22:43;98588.41;;;23.43
6550;BMP280;15142;48.888;9.134;2023-05-18T12:25:14;98577.91;;;22.80
6550;BMP280;15142;48.888;9.134;2023-05-18T12:27:44;98572.78;;;22.31
6550;BMP280;15142;48.888;9.134;2023-05-18T12:30:16;98561.28;;;22.51
6550;BMP280;15142;48.888;9.134;2023-05-18T12:32:46;98573.81;;;22.79
6550;BMP280;15142;48.888;9.134;2023-05-18T12:35:15;98577.91;;;23.40
6550;BMP280;15142;48.888;9.134;2023-05-18T12:37:47;98554.13;;;22.29
6550;BMP280;15142;48.888;9.134;2023-05-18T12:40:18;98566.28;;;21.04
6550;BMP280;15142;48.888;9.134;2023-05-18T12:42:50;98564.97;;;19.65
6550;BMP280;15142;48.888;9.134;2023-05-18T12:45:22;98558.41;;;19.91
6550;BMP280;15142;48.888;9.134;2023-05-18T12:47:51;98558.41;;;21.58
6550;BMP280;15142;48.888;9.134;2023-05-18T12:50:21;98560.13;;;23.04
6550;BMP280;15142;48.888;9.134;2023-05-18T12:52:54;98555.38;;;22.88
6550;BMP280;15142;48.888;9.134;2023-05-18T12:55:23;98559.44;;;22.85
6550;BMP280;15142;48.888;9.134;2023-05-18T12:57:59;98540.22;;;23.59
6550;BMP280;15142;48.888;9.134;2023-05-18T13:00:31;98536.78;;;21.39
6550;BMP280;15142;48.888;9.134;2023-05-18T13:03:07;98529.19;;;20.14
6550;BMP280;15142;48.888;9.134;2023-05-18T13:05:36;98554.97;;;21.39
6550;BMP280;15142;48.888;9.134;2023-05-18T13:08:12;98558.09;;;22.76
6550;BMP280;15142;48.888;9.134;2023-05-18T13:10:42;98555.59;;;23.42
6550;BMP280;15142;48.888;9.134;2023-05-18T13:13:14;98529.47;;;22.76
6550;BMP280;15142;48.888;9.134;2023-05-18T13:15:43;98537.03;;;21.49
6550;BMP280;15142;48.888;9.134;2023-05-18T13:18:12;98561.16;;;20.41
6550;BMP280;15142;48.888;9.134;2023-05-18T13:20:43;98535.22;;;20.30
6550;BMP280;15142;48.888;9.134;2023-05-18T13:23:18;98553.44;;;20.95
6550;BMP280;15142;48.888;9.134;2023-05-18T13:25:47;98536.16;;;21.30
6550;BMP280;15142;48.888;9.134;2023-05-18T13:28:18;98533.28;;;20.03
6550;BMP280;15142;48.888;9.134;2023-05-18T13:30:48;98536.44;;;19.41
6550;BMP280;15142;48.888;9.134;2023-05-18T13:33:16;98541.28;;;18.71
6550;BMP280;15142;48.888;9.134;2023-05-18T13:35:46;98554.94;;;19.20
6550;BMP280;15142;48.888;9.134;2023-05-18T13:38:17;98546.94;;;21.01
6550;BMP280;15142;48.888;9.134;2023-05-18T13:40:46;98545.81;;;21.60
6550;BMP280;15142;48.888;9.134;2023-05-18T13:43:15;98543.47;;;20.70
6550;BMP280;15142;48.888;9.134;2023-05-18T13:45:43;98524.63;;;20.23
6550;BMP280;15142;48.888;9.134;2023-05-18T13:48:11;98534.84;;;20.93
6550;BMP280;15142;48.888;9.134;2023-05-18T13:50:40;98516.41;;;20.33
6550;BMP280;15142;48.888;9.134;2023-05-18T13:53:09;98526.59;;;20.64
6550;BMP280;15142;48.888;9.134;2023-05-18T13:55:40;98528.56;;;21.10
6550;BMP280;15142;48.888;9.134;2023-05-18T13:58:09;98525.88;;;21.79
6550;BMP280;15142;48.888;9.134;2023-05-18T14:00:37;98516.84;;;20.34
6550;BMP280;15142;48.888;9.134;2023-05-18T14:03:06;98507.66;;;19.66
6550;BMP280;15142;48.888;9.134;2023-05-18T14:05:35;98501.44;;;19.35
6550;BMP280;15142;48.888;9.134;2023-05-18T14:08:04;98515.31;;;19.75
6550;BMP280;15142;48.888;9.134;2023-05-18T14:10:33;98512.88;;;20.13
6550;BMP280;15142;48.888;9.134;2023-05-18T14:13:04;98511.13;;;20.29
6550;BMP280;15142;48.888;9.134;2023-05-18T14:15:33;98508.44;;;20.64
6550;BMP280;15142;48.888;9.134;2023-05-18T14:18:01;98501.66;;;20.48
6550;BMP280;15142;48.888;9.134;2023-05-18T14:20:30;98503.13;;;19.87
6550;BMP280;15142;48.888;9.134;2023-05-18T14:23:00;98493.06;;;19.50
6550;BMP280;15142;48.888;9.134;2023-05-18T14:25:29;98493.94;;;19.54
6550;BMP280;15142;48.888;9.134;2023-05-18T14:27:57;98490.97;;;19.20
6550;BMP280;15142;48.888;9.134;2023-05-18T14:30:29;98489.31;;;19.48
6550;BMP280;15142;48.888;9.134;2023-05-18T14:32:57;98489.53;;;19.11
6550;BMP280;15142;48.888;9.134;2023-05-18T14:35:26;98495.66;;;19.06
6550;BMP280;15142;48.888;9.134;2023-05-18T14:37:55;98493.41;;;19.17
6550;BMP280;15142;48.888;9.134;2023-05-18T14:40:23;98488.16;;;18.93
6550;BMP280;15142;48.888;9.134;2023-05-18T14:42:52;98486.31;;;19.14
6550;BMP280;15142;48.888;9.134;2023-05-18T14:45:21;98486.97;;;19.23
6550;BMP280;15142;48.888;9.134;2023-05-18T14:47:52;98480.97;;;19.42